This is the latest recevied weather packets stored in our database for station/object N2MLB-WX. If no packets are shown the sender has not sent any weather packets the latest 10 day(s).
| Time | Temp. | Humidity | Pressure | Rain* | Wind** | Luminosity | Snow |
|---|---|---|---|---|---|---|---|
| 1777906642 | 21.67° C | 38% | 1003 hPa | 0 mm | - | 129 W/m² | - |
| 1777906342 | 19.44° C | 43% | 1003 hPa | 0 mm | - | 126 W/m² | - |
| 1777906042 | 20.56° C | 42% | 1003 hPa | 0 mm | - | 124 W/m² | - |
| 1777905742 | 19.44° C | 43% | 1003 hPa | 0 mm | - | 120 W/m² | - |
| 1777905442 | 18.89° C | 43% | 1003 hPa | 0 mm | - | 118 W/m² | - |
| 1777905142 | 19.44° C | 44% | 1003 hPa | 0 mm | - | 115 W/m² | - |
| 1777904842 | 18.89° C | 46% | 1003 hPa | 0 mm | - | 113 W/m² | - |
| 1777904544 | 19.44° C | 43% | 1003 hPa | 0 mm | - | 110 W/m² | - |
| 1777904242 | 19.44° C | 42% | 1003 hPa | 0 mm | - | 108 W/m² | - |
| 1777903943 | 18.33° C | 47% | 1003 hPa | 0 mm | - | 105 W/m² | - |
| 1777903357 | 18.33° C | 44% | 1003 hPa | 0 mm | - | 97 W/m² | - |
| 1777903042 | 17.78° C | 45% | 1003 hPa | 0 mm | - | 95 W/m² | - |
| 1777902742 | 17.22° C | 44% | 1003 hPa | 0 mm | - | 91 W/m² | - |
| 1777902442 | 17.78° C | 46% | 1003 hPa | 0 mm | - | 87 W/m² | - |
| 1777902143 | 16.67° C | 46% | 1003 hPa | 0 mm | - | 84 W/m² | - |
| 1777901844 | 16.67° C | 46% | 1003 hPa | 0 mm | - | 83 W/m² | - |
| 1777901541 | 17.22° C | 45% | 1003 hPa | 0 mm | - | 80 W/m² | - |
| 1777901242 | 17.78° C | 44% | 1003 hPa | 0 mm | - | 77 W/m² | - |
| 1777900944 | 16.11° C | 45% | 1003 hPa | 0 mm | - | 74 W/m² | - |
| 1777900641 | 16.11° C | 47% | 1003 hPa | 0 mm | - | 71 W/m² | - |
| 1777900342 | 16.67° C | 44% | 1003 hPa | 0 mm | - | 65 W/m² | - |
| 1777900042 | 16.11° C | 46% | 1003 hPa | 0 mm | - | 64 W/m² | - |
| 1777899742 | 16.11° C | 47% | 1003 hPa | 0 mm | - | 62 W/m² | - |
| 1777899444 | 16.11° C | 47% | 1003 hPa | 0 mm | - | 58 W/m² | - |
| 1777899141 | 15° C | 48% | 1003 hPa | 0 mm | - | 55 W/m² | - |
* Rain latest hour (hover to see other rain measurements)
** Current wind speed in m/s (hover to see current wind gust speed)